Time;durP1;ratioP1;P1;durP2;ratioP2;P2;SDS_P1;SDS_P2;PMS_P1;PMS_P2;Temp;Humidity;BMP_temperature;BMP_pressure;BME280_temperature;BME280_humidity;BME280_pressure;Samples;Min_cycle;Max_cycle;Signal;HPM_P1;HPM_P2
2022/01/24 00:01:49;;;;;;;;;30.75;26.00;;;;;6.39;65.55;102482.28;5037643;28;46705;-78
2022/01/24 00:04:15;;;;;;;;;30.50;20.50;;;;;6.39;65.63;102482.28;5035768;28;46262;-80
2022/01/24 00:06:41;;;;;;;;;26.75;24.25;;;;;6.38;65.41;102488.38;5037032;28;45665;-77
2022/01/24 00:09:07;;;;;;;;;39.50;31.50;;;;;6.37;65.64;102481.44;5035420;28;45701;-77
2022/01/24 00:11:43;;;;;;;;;32.25;28.50;;;;;6.23;65.61;102447.94;5034714;28;46263;-79
2022/01/24 00:16:57;;;;;;;;;37.00;27.50;;;;;6.25;65.54;102464.38;5033476;28;45583;-81
2022/01/24 00:27:19;;;;;;;;;32.75;25.50;;;;;6.16;65.80;102450.72;5033021;28;45590;-81
2022/01/24 00:29:45;;;;;;;;;33.75;26.00;;;;;6.27;66.00;102466.94;5033756;28;45670;-79
2022/01/24 00:32:10;;;;;;;;;31.50;27.50;;;;;6.25;65.79;102464.38;5035499;28;45698;-79
2022/01/24 00:34:35;;;;;;;;;32.75;24.75;;;;;6.20;65.70;102452.38;5036986;28;45811;-79
2022/01/24 00:37:01;;;;;;;;;26.75;21.75;;;;;6.23;65.93;102463.56;5037195;28;45902;-79
2022/01/24 00:39:27;;;;;;;;;26.25;23.25;;;;;6.17;65.79;102450.69;5036480;28;45504;-82
2022/01/24 00:47:00;;;;;;;;;34.75;27.50;;;;;6.19;66.17;102451.53;5036542;28;45593;-76
2022/01/24 00:54:44;;;;;;;;;34.25;26.25;;;;;6.14;65.42;102442.09;5036722;28;46249;-78
2022/01/24 00:57:11;;;;;;;;;32.75;22.50;;;;;6.14;66.00;102440.38;5036433;28;45706;-78
2022/01/24 00:59:37;;;;;;;;;25.25;22.50;;;;;6.12;65.95;102430.88;5035580;28;45948;-80
2022/01/24 01:02:04;;;;;;;;;35.00;28.50;;;;;6.11;66.13;102435.22;5035237;28;47804;-79
2022/01/24 01:05:12;;;;;;;;;32.75;27.00;;;;;6.01;66.03;102422.44;5036727;28;46208;-77
2022/01/24 01:18:20;;;;;;;;;27.75;24.25;;;;;6.02;66.27;102432.84;5036931;28;45929;-78
2022/01/24 01:23:19;;;;;;;;;32.00;28.00;;;;;5.87;66.07;102413.22;5036817;28;45737;-81
2022/01/24 01:25:46;;;;;;;;;23.75;21.50;;;;;6.00;65.98;102434.59;5036870;28;46110;-80
2022/01/24 01:28:12;;;;;;;;;28.25;24.50;;;;;5.98;65.92;102432.94;5037044;28;45571;-80
2022/01/24 01:30:43;;;;;;;;;31.50;27.50;;;;;6.03;66.13;102447.56;5035660;28;46010;-78
2022/01/24 01:33:21;;;;;;;;;29.00;23.75;;;;;6.02;65.93;102437.19;5037709;28;47319;-82
2022/01/24 01:54:57;;;;;;;;;34.25;26.25;;;;;5.82;66.40;102416.78;5042791;28;45531;-78
2022/01/24 01:57:23;;;;;;;;;30.75;26.25;;;;;5.84;66.31;102425.41;5037352;28;46449;-77
2022/01/24 02:03:10;;;;;;;;;34.25;27.00;;;;;5.89;66.23;102447.00;5040597;28;45523;-78
2022/01/24 02:05:37;;;;;;;;;27.75;24.00;;;;;5.87;66.30;102427.97;5039250;28;45778;-78
2022/01/24 02:08:03;;;;;;;;;36.75;31.00;;;;;5.86;66.58;102428.84;5039821;28;45668;-79
2022/01/24 02:10:29;;;;;;;;;30.25;26.25;;;;;5.84;66.38;102435.81;5041808;28;45716;-79
2022/01/24 02:12:56;;;;;;;;;28.75;22.25;;;;;5.83;66.66;102437.53;5036369;28;45893;-78
2022/01/24 02:18:53;;;;;;;;;36.50;25.00;;;;;5.76;66.45;102433.38;5048112;28;45686;-77
2022/01/24 02:21:42;;;;;;;;;30.00;25.25;;;;;5.79;66.56;102437.66;5050193;28;45701;-77
2022/01/24 02:24:09;;;;;;;;;37.75;26.50;;;;;5.66;66.57;102413.69;5071920;28;45210;-77
2022/01/24 02:26:35;;;;;;;;;30.75;26.00;;;;;5.48;66.42;102375.06;5056430;28;46339;-79
2022/01/24 02:29:14;;;;;;;;;33.25;26.75;;;;;5.78;66.73;102426.38;5055661;28;45752;-78
2022/01/24 02:35:01;;;;;;;;;28.75;23.75;;;;;5.76;66.96;102420.38;5040451;28;45731;-80
2022/01/24 02:37:28;;;;;;;;;28.00;24.50;;;;;5.69;66.74;102408.41;5040286;28;45860;-76
2022/01/24 02:40:02;;;;;;;;;30.75;26.00;;;;;5.64;66.56;102396.38;5047619;28;45637;-78
2022/01/24 02:53:22;;;;;;;;;30.75;26.75;;;;;5.61;66.92;102406.88;5034611;28;45720;-79
2022/01/24 02:55:48;;;;;;;;;30.75;26.00;;;;;5.55;66.74;102394.00;5033551;28;45974;-78
2022/01/24 02:58:16;;;;;;;;;27.50;25.25;;;;;5.57;66.85;102400.00;5034903;28;45579;-80
2022/01/24 03:00:42;;;;;;;;;33.00;29.50;;;;;5.54;66.47;102400.06;5034253;28;46400;-79
2022/01/24 03:03:08;;;;;;;;;27.75;23.75;;;;;5.45;67.08;102391.56;5034979;28;45618;-78
2022/01/24 03:05:34;;;;;;;;;39.75;28.00;;;;;5.51;67.06;102400.16;5034074;28;45616;-76
2022/01/24 03:08:01;;;;;;;;;34.25;25.50;;;;;5.48;66.84;102404.53;5034280;28;45600;-78
2022/01/24 03:10:37;;;;;;;;;31.50;26.25;;;;;5.40;66.68;102389.94;5033766;28;46186;-78
2022/01/24 03:13:32;;;;;;;;;33.50;26.50;;;;;5.47;67.06;102405.41;5049868;28;46199;-77
2022/01/24 03:16:01;;;;;;;;;32.50;25.00;;;;;5.41;66.69;102395.13;5049616;28;45578;-79
2022/01/24 03:18:27;;;;;;;;;31.25;25.75;;;;;5.46;66.97;102395.03;5034350;28;45777;-77
2022/01/24 03:20:53;;;;;;;;;32.75;27.25;;;;;5.40;67.00;102382.16;5033574;28;46415;-79
2022/01/24 03:23:20;;;;;;;;;34.25;28.75;;;;;5.46;67.13;102389.81;5034091;28;45673;-78
2022/01/24 03:25:46;;;;;;;;;38.25;26.75;;;;;5.45;66.63;102381.16;5033937;28;45885;-78
2022/01/24 03:28:12;;;;;;;;;33.25;26.75;;;;;5.43;66.51;102387.31;5033977;28;46647;-77
2022/01/24 03:30:39;;;;;;;;;21.50;16.25;;;;;5.32;66.90;102366.75;5033415;28;47039;-79
2022/01/24 03:33:06;;;;;;;;;39.50;30.50;;;;;5.42;67.13;102394.25;5049357;28;45968;-80
2022/01/24 03:35:32;;;;;;;;;37.75;31.25;;;;;5.30;66.80;102370.25;5032403;28;45520;-80
2022/01/24 03:37:58;;;;;;;;;29.75;23.50;;;;;5.37;66.73;102379.63;5034049;28;47516;-78
2022/01/24 03:40:25;;;;;;;;;35.00;26.75;;;;;5.35;66.55;102369.28;5033904;28;45894;-79
2022/01/24 03:42:50;;;;;;;;;30.50;26.25;;;;;5.40;66.78;102382.16;5033785;28;45591;-79
2022/01/24 03:45:23;;;;;;;;;28.75;24.00;;;;;5.40;67.23;102379.56;5034153;28;45666;-80
2022/01/24 03:48:10;;;;;;;;;30.50;28.25;;;;;5.39;67.19;102375.28;5033543;28;46522;-78
2022/01/24 03:50:36;;;;;;;;;33.00;26.50;;;;;5.37;66.67;102379.63;5033557;28;45678;-77
2022/01/24 03:53:03;;;;;;;;;33.75;28.25;;;;;5.36;66.74;102377.91;5033513;28;45661;-78
2022/01/24 03:55:29;;;;;;;;;37.00;30.00;;;;;5.35;66.72;102368.41;5033949;28;45746;-77
2022/01/24 03:57:54;;;;;;;;;33.50;29.50;;;;;5.31;66.88;102364.16;5034125;28;48512;-79
2022/01/24 04:00:20;;;;;;;;;26.00;23.75;;;;;5.34;67.03;102372.78;5035906;28;45551;-78
2022/01/24 04:02:47;;;;;;;;;37.75;26.25;;;;;5.33;67.06;102372.81;5035827;28;45635;-78
2022/01/24 04:05:12;;;;;;;;;31.50;28.50;;;;;5.33;66.99;102378.00;5034225;28;45826;-78
2022/01/24 04:07:38;;;;;;;;;35.00;28.25;;;;;5.30;67.15;102367.66;5036391;28;45740;-78
2022/01/24 04:10:06;;;;;;;;;36.00;25.50;;;;;5.23;66.95;102356.56;5037043;28;45759;-80
2022/01/24 04:12:35;;;;;;;;;33.50;29.00;;;;;5.27;66.96;102359.94;5036990;28;46012;-80
2022/01/24 04:23:41;;;;;;;;;31.50;25.75;;;;;5.22;66.87;102360.03;5036702;28;46081;-80
2022/01/24 04:26:06;;;;;;;;;28.50;23.00;;;;;5.21;67.31;102357.47;5037044;28;45690;-79
2022/01/24 04:28:31;;;;;;;;;29.00;26.00;;;;;5.20;66.87;102363.53;5036661;28;45637;-80
2022/01/24 04:30:57;;;;;;;;;30.00;24.50;;;;;5.09;67.30;102345.56;5036919;28;46161;-79
2022/01/24 04:33:22;;;;;;;;;31.75;24.00;;;;;5.16;66.91;102362.75;5037017;28;45701;-79
2022/01/24 04:35:48;;;;;;;;;26.50;23.00;;;;;5.15;66.97;102361.03;5036796;28;45958;-79
2022/01/24 04:38:13;;;;;;;;;35.25;29.25;;;;;5.15;67.42;102365.38;5052074;28;48651;-80
2022/01/24 04:40:40;;;;;;;;;31.75;24.75;;;;;5.12;67.15;102366.31;5036965;28;45666;-79
2022/01/24 04:43:28;;;;;;;;;28.25;23.00;;;;;5.11;67.29;102369.78;5037110;28;46021;-82
2022/01/24 04:56:34;;;;;;;;;27.25;24.50;;;;;5.04;67.41;102360.41;5036507;28;45666;-80
2022/01/24 04:59:00;;;;;;;;;29.25;24.00;;;;;5.05;67.30;102362.97;5036114;28;47166;-78
2022/01/24 05:01:25;;;;;;;;;29.50;26.00;;;;;5.08;67.20;102369.84;5036896;28;46190;-80
2022/01/24 05:03:51;;;;;;;;;22.75;20.75;;;;;5.07;67.58;102358.59;5036446;28;45730;-78
2022/01/24 05:06:17;;;;;;;;;30.25;23.25;;;;;5.02;67.66;102355.22;5036153;28;45878;-79
2022/01/24 05:08:42;;;;;;;;;32.50;29.00;;;;;5.07;67.70;102365.56;5036330;28;46611;-77
2022/01/24 05:11:12;;;;;;;;;26.25;23.25;;;;;5.06;67.23;102375.09;5036481;28;45998;-79
2022/01/24 05:25:13;;;;;;;;;35.00;29.25;;;;;4.92;67.33;102358.03;5038039;28;45612;-78
2022/01/24 05:27:39;;;;;;;;;24.50;22.50;;;;;4.99;67.77;102367.44;5042908;28;45634;-78
2022/01/24 05:30:05;;;;;;;;;35.75;28.50;;;;;4.98;67.84;102366.56;5044506;28;46372;-77
2022/01/24 05:35:52;;;;;;;;;26.25;24.00;;;;;4.98;67.65;102366.56;5043021;28;45734;-80
2022/01/24 05:38:19;;;;;;;;;29.00;25.75;;;;;4.94;67.12;102357.13;5041046;28;45480;-79
2022/01/24 05:40:45;;;;;;;;;32.50;22.25;;;;;4.96;67.73;102363.16;5038398;28;47691;-78
2022/01/24 05:43:11;;;;;;;;;33.50;29.50;;;;;4.96;67.84;102354.50;5038204;28;46292;-77
2022/01/24 05:45:37;;;;;;;;;30.75;25.75;;;;;4.93;67.77;102352.81;5040509;28;45829;-79
2022/01/24 05:52:09;;;;;;;;;33.00;27.75;;;;;4.91;67.87;102357.19;5033068;28;46105;-79
2022/01/24 05:54:37;;;;;;;;;29.00;24.75;;;;;4.60;67.83;102297.22;5036043;28;45870;-80
2022/01/24 05:57:04;;;;;;;;;30.75;22.50;;;;;4.91;67.39;102348.56;5035716;28;45693;-78
2022/01/24 05:59:30;;;;;;;;;25.75;21.25;;;;;4.81;67.48;102339.22;5034760;28;45602;-82
2022/01/24 06:05:17;;;;;;;;;25.75;24.75;;;;;4.88;67.56;102352.06;5036709;28;45677;-81
2022/01/24 06:07:43;;;;;;;;;34.25;28.25;;;;;4.81;67.81;102341.81;5041097;28;45461;-80
2022/01/24 06:10:08;;;;;;;;;28.50;23.50;;;;;4.88;67.81;102353.78;5041560;28;45691;-77
2022/01/24 06:12:34;;;;;;;;;29.75;24.00;;;;;4.78;67.51;102329.75;5040563;28;45726;-79
2022/01/24 06:15:00;;;;;;;;;31.00;24.50;;;;;4.87;67.64;102354.69;5039861;28;46362;-78
2022/01/24 06:20:47;;;;;;;;;36.00;29.25;;;;;4.75;67.76;102339.34;5039423;28;45774;-77
2022/01/24 06:23:16;;;;;;;;;32.50;26.25;;;;;4.85;67.91;102359.91;5036507;28;46538;-78
2022/01/24 06:25:43;;;;;;;;;31.50;24.75;;;;;4.53;67.55;102308.63;5036388;28;46200;-79
2022/01/24 06:28:09;;;;;;;;;34.75;27.75;;;;;4.84;67.56;102366.00;5036625;28;45919;-78
2022/01/24 06:30:34;;;;;;;;;31.75;27.25;;;;;4.76;68.06;102348.81;5035475;28;45744;-84
2022/01/24 06:36:21;;;;;;;;;31.50;22.75;;;;;4.68;68.05;102349.00;5035734;28;45700;-78
2022/01/24 06:38:46;;;;;;;;;35.75;29.75;;;;;4.74;67.75;102355.81;5036080;28;45750;-82
2022/01/24 06:41:24;;;;;;;;;25.75;25.50;;;;;4.59;68.00;102338.75;5034959;28;45710;-82
2022/01/24 06:43:49;;;;;;;;;35.00;27.00;;;;;4.75;68.08;102363.53;5035124;28;45669;-78
2022/01/24 06:46:14;;;;;;;;;28.00;24.75;;;;;4.74;67.73;102368.78;5032993;28;46311;-83
2022/01/24 06:48:40;;;;;;;;;33.50;28.75;;;;;4.74;68.17;102368.78;5034400;28;46023;-83
2022/01/24 06:51:10;;;;;;;;;30.50;24.75;;;;;4.73;68.23;102369.66;5034595;28;45637;-80
2022/01/24 06:53:39;;;;;;;;;37.75;26.25;;;;;4.55;67.96;102343.16;5034866;28;45668;-80
2022/01/24 06:56:05;;;;;;;;;33.75;29.00;;;;;4.67;67.88;102365.44;5034948;28;46360;-84
2022/01/24 06:58:32;;;;;;;;;28.00;22.75;;;;;4.70;67.89;102367.16;5034705;28;45683;-78
2022/01/24 07:00:58;;;;;;;;;31.00;26.50;;;;;4.51;68.21;102338.91;5035633;28;45482;-81
2022/01/24 07:06:46;;;;;;;;;37.75;31.00;;;;;4.59;68.23;102346.53;5035453;28;45878;-84
2022/01/24 07:09:12;;;;;;;;;36.00;30.25;;;;;4.62;67.95;102362.94;5035279;28;45599;-83
2022/01/24 07:11:39;;;;;;;;;37.25;29.75;;;;;4.52;67.74;102340.63;5035436;28;45761;-84
2022/01/24 07:14:07;;;;;;;;;30.50;25.75;;;;;4.75;68.27;102375.69;5050538;28;46770;-84
2022/01/24 07:19:17;;;;;;;;;37.00;28.00;;;;;4.75;67.91;102379.13;5034991;28;45871;-84
2022/01/24 07:21:42;;;;;;;;;79.50;62.50;;;;;4.77;68.12;102379.09;5035057;28;45716;-84
2022/01/24 07:24:08;;;;;;;;;57.00;39.75;;;;;4.68;68.30;102364.56;5035561;28;45602;-85
2022/01/24 07:26:33;;;;;;;;;29.50;24.75;;;;;4.74;68.39;102381.78;5035399;28;45801;-83
2022/01/24 07:28:58;;;;;;;;;35.00;29.25;;;;;4.71;68.06;102379.22;5033260;28;45657;-82
2022/01/24 07:31:24;;;;;;;;;35.00;30.00;;;;;4.76;68.12;102379.97;5033690;28;45904;-83
2022/01/24 07:33:51;;;;;;;;;43.00;30.00;;;;;4.80;68.46;102382.53;5034864;28;47037;-82
2022/01/24 07:36:18;;;;;;;;;35.75;30.75;;;;;4.70;68.28;102362.78;5034310;28;47394;-85
2022/01/24 07:38:43;;;;;;;;;34.75;28.75;;;;;4.81;68.36;102380.75;5035137;28;45747;-80
2022/01/24 07:41:08;;;;;;;;;30.00;24.25;;;;;4.82;68.13;102377.28;5034072;28;45695;-84
2022/01/24 07:43:34;;;;;;;;;31.00;25.00;;;;;4.82;68.28;102372.09;5034712;28;46398;-84
2022/01/24 07:45:59;;;;;;;;;33.00;26.50;;;;;4.81;68.28;102372.97;5034679;28;45634;-83
2022/01/24 07:51:47;;;;;;;;;22.75;17.75;;;;;4.71;68.30;102358.44;5030827;28;45700;-84
2022/01/24 07:54:12;;;;;;;;;38.50;29.25;;;;;4.66;68.30;102355.94;5035214;28;46580;-83
2022/01/24 07:56:39;;;;;;;;;28.75;28.00;;;;;4.79;68.04;102379.94;5035554;28;45828;-85
2022/01/24 07:59:05;;;;;;;;;32.25;27.25;;;;;4.73;68.24;102375.72;5034739;28;45597;-83
2022/01/24 08:01:30;;;;;;;;;32.00;27.50;;;;;4.84;68.17;102386.75;5051186;28;46154;-87
2022/01/24 08:03:55;;;;;;;;;40.00;29.75;;;;;4.82;68.13;102388.53;5037763;28;45568;-81
2022/01/24 08:06:21;;;;;;;;;42.50;29.25;;;;;4.89;68.47;102399.66;5037881;28;46980;-83
2022/01/24 08:08:46;;;;;;;;;33.00;27.25;;;;;4.85;68.59;102393.69;5038957;28;45606;-87
2022/01/24 08:11:12;;;;;;;;;40.25;31.00;;;;;4.87;68.14;102393.63;5038392;28;45937;-86
2022/01/24 08:13:38;;;;;;;;;25.25;22.50;;;;;4.93;68.24;102399.56;5037358;28;45815;-82
2022/01/24 08:16:03;;;;;;;;;38.50;28.50;;;;;4.93;68.25;102394.38;5036632;28;47141;-87
2022/01/24 08:21:52;;;;;;;;;35.00;27.50;;;;;5.04;68.17;102402.81;5035104;28;45661;-86
2022/01/24 08:24:17;;;;;;;;;31.25;25.50;;;;;4.97;68.34;102387.38;5050647;28;46710;-81
2022/01/24 08:26:42;;;;;;;;;46.50;30.00;;;;;5.07;68.52;102407.09;5034981;28;45705;-83
2022/01/24 08:29:08;;;;;;;;;29.00;25.00;;;;;5.03;68.35;102408.88;5034875;28;46148;-83
2022/01/24 08:34:56;;;;;;;;;34.25;29.25;;;;;5.02;67.98;102407.16;5035520;28;45741;-86
2022/01/24 08:37:22;;;;;;;;;34.75;26.50;;;;;4.98;68.16;102395.13;5035282;28;46720;-81
2022/01/24 08:39:49;;;;;;;;;36.50;31.75;;;;;5.08;68.05;102403.59;5034953;28;45981;-82
2022/01/24 08:42:32;;;;;;;;;32.00;28.50;;;;;5.07;68.35;102418.31;5050362;28;45534;-82
2022/01/24 08:50:46;;;;;;;;;32.75;27.25;;;;;5.10;67.92;102411.38;5035889;28;46149;-84
2022/01/24 08:53:12;;;;;;;;;32.75;29.50;;;;;5.06;68.09;102410.59;5041825;28;45808;-86
2022/01/24 08:55:39;;;;;;;;;35.00;26.75;;;;;5.15;67.98;102417.34;5041038;28;47650;-79
2022/01/24 08:58:06;;;;;;;;;34.75;29.75;;;;;5.10;67.90;102406.19;5040435;28;46169;-85
2022/01/24 09:00:32;;;;;;;;;41.25;33.25;;;;;5.19;67.81;102421.56;5053587;28;45698;-84
2022/01/24 09:06:21;;;;;;;;;32.50;28.00;;;;;5.24;68.17;102420.59;5037153;28;45626;-84
2022/01/24 09:08:55;;;;;;;;;35.75;27.75;;;;;5.15;67.73;102404.34;5037544;28;45668;-83
2022/01/24 09:11:24;;;;;;;;;29.50;27.25;;;;;5.30;67.54;102432.59;5037408;28;45733;-84
2022/01/24 09:13:50;;;;;;;;;29.75;27.50;;;;;5.33;67.79;102430.81;5036965;28;45769;-83
2022/01/24 09:16:16;;;;;;;;;40.50;32.00;;;;;5.33;67.68;102428.22;5037211;28;45751;-87
2022/01/24 09:22:03;;;;;;;;;28.25;26.50;;;;;5.41;67.62;102433.25;5036900;28;45660;-85
2022/01/24 09:24:29;;;;;;;;;37.75;28.25;;;;;5.40;67.87;102429.78;5037343;28;45884;-85
2022/01/24 09:26:55;;;;;;;;;41.00;28.50;;;;;5.44;67.76;102439.25;5037180;28;46359;-86
2022/01/24 09:29:21;;;;;;;;;36.75;32.50;;;;;5.37;67.96;102416.03;5037510;28;46118;-81
2022/01/24 09:31:46;;;;;;;;;40.75;32.75;;;;;5.36;67.64;102409.97;5037522;28;45704;-84
2022/01/24 09:34:12;;;;;;;;;34.25;31.00;;;;;5.52;67.59;102420.91;5052674;28;45990;-87
2022/01/24 09:36:37;;;;;;;;;33.00;27.25;;;;;5.55;67.81;102425.19;5036950;28;45969;-82
2022/01/24 09:39:03;;;;;;;;;34.75;31.00;;;;;5.24;67.65;102376.44;5037014;28;46604;-81
2022/01/24 09:41:29;;;;;;;;;37.00;30.50;;;;;5.62;67.60;102430.22;5037543;28;45527;-83
2022/01/24 09:43:55;;;;;;;;;32.50;28.25;;;;;5.55;67.48;102413.06;5037554;28;45764;-85
2022/01/24 09:46:20;;;;;;;;;38.75;30.50;;;;;5.49;67.83;102397.59;5037524;28;45801;-83
2022/01/24 09:52:07;;;;;;;;;31.50;27.00;;;;;5.77;67.34;102431.66;5034959;28;45816;-83
2022/01/24 09:54:33;;;;;;;;;33.00;29.50;;;;;5.74;67.46;102431.69;5041011;28;45586;-86
2022/01/24 09:56:58;;;;;;;;;39.25;31.50;;;;;5.79;67.37;102440.25;5039888;28;46748;-87
2022/01/24 09:59:23;;;;;;;;;33.75;29.50;;;;;5.75;67.73;102430.81;5038516;28;45623;-85
2022/01/24 10:01:49;;;;;;;;;31.00;28.75;;;;;5.84;67.31;102439.25;5037969;28;46067;-82
2022/01/24 10:07:39;;;;;;;;;42.00;30.00;;;;;5.99;67.37;102440.72;5037957;28;45632;-84
2022/01/24 10:10:05;;;;;;;;;30.75;26.75;;;;;6.03;67.40;102439.75;5037851;28;45555;-86
2022/01/24 10:17:46;;;;;;;;;36.50;30.50;;;;;6.11;67.13;102432.59;5038107;28;46408;-87
2022/01/24 10:20:28;;;;;;;;;35.00;30.50;;;;;6.20;67.30;102436.75;5057844;28;45743;-79
2022/01/24 10:23:12;;;;;;;;;40.00;30.50;;;;;6.24;67.40;102434.03;5046189;28;45879;-81
2022/01/24 10:26:00;;;;;;;;;36.75;27.75;;;;;6.27;67.39;102426.16;5045852;28;45538;-78
2022/01/24 10:28:33;;;;;;;;;35.75;28.75;;;;;6.29;66.77;102428.72;5046667;28;46377;-79
2022/01/24 10:31:04;;;;;;;;;35.25;27.50;;;;;6.33;66.99;102435.56;5044866;28;45612;-91
2022/01/24 10:33:30;;;;;;;;;38.25;32.00;;;;;6.29;66.75;102424.38;5043432;28;45892;-87
2022/01/24 10:35:56;;;;;;;;;35.50;29.00;;;;;6.39;66.95;102429.34;5043749;28;45523;-84
2022/01/24 10:41:25;;;;;;;;;27.50;23.25;;;;;6.40;66.87;102418.91;5042560;28;45905;-83
2022/01/24 10:43:55;;;;;;;;;35.00;29.75;;;;;6.44;66.51;102414.47;5041531;28;45602;-82
2022/01/24 10:46:23;;;;;;;;;30.25;27.00;;;;;6.53;66.79;102419.47;5041429;28;45612;-82
2022/01/24 10:49:00;;;;;;;;;37.75;35.25;;;;;6.57;66.85;102421.97;5046352;28;45289;-84
2022/01/24 10:51:27;;;;;;;;;41.25;35.50;;;;;6.62;66.52;102411.41;5045525;28;46499;-86
2022/01/24 10:53:56;;;;;;;;;38.25;34.50;;;;;6.63;66.58;102398.38;5063403;28;45468;-84
2022/01/24 10:56:52;;;;;;;;;40.25;33.00;;;;;6.72;66.42;102405.94;5048693;28;45541;-85
2022/01/24 10:59:22;;;;;;;;;37.50;32.25;;;;;6.75;66.18;102411.03;4961650;28;46724;-82
2022/01/24 11:01:58;;;;;;;;;42.75;33.50;;;;;6.74;66.51;102398.09;4960313;28;45583;-82
2022/01/24 11:04:27;;;;;;;;;43.25;30.50;;;;;6.82;66.29;102401.31;4960062;28;45926;-83
2022/01/24 11:06:55;;;;;;;;;40.50;35.50;;;;;6.72;66.22;102372.06;4962534;28;45628;-86
2022/01/24 11:09:41;;;;;;;;;43.00;32.75;;;;;6.87;66.27;102395.97;4964158;28;45690;-87
2022/01/24 11:12:11;;;;;;;;;33.00;25.75;;;;;6.91;66.22;102390.66;4968966;28;46439;-85
2022/01/24 11:14:44;;;;;;;;;37.00;31.50;;;;;6.92;65.91;102388.91;4974752;28;45546;-87
2022/01/24 11:17:15;;;;;;;;;33.50;32.25;;;;;6.90;66.01;102381.16;4971938;28;45598;-85
2022/01/24 11:19:48;;;;;;;;;37.50;28.75;;;;;7.00;65.87;102386.94;4974402;28;45573;-79
2022/01/24 11:22:24;;;;;;;;;31.75;27.50;;;;;7.03;65.76;102387.72;4971018;28;46070;-89
2022/01/24 11:24:57;;;;;;;;;32.75;29.25;;;;;7.06;65.74;102384.19;4962821;28;45676;-83
2022/01/24 11:27:24;;;;;;;;;38.50;31.00;;;;;7.08;65.68;102375.41;4961245;28;45658;-87
2022/01/24 11:29:51;;;;;;;;;34.75;32.00;;;;;7.11;65.52;102377.94;4961856;28;46008;-89
2022/01/24 11:32:26;;;;;;;;;36.25;32.25;;;;;7.02;65.43;102359.09;4961229;28;46736;-90
2022/01/24 11:34:54;;;;;;;;;40.75;33.50;;;;;7.02;65.18;102359.94;4969012;28;45616;-82
2022/01/24 11:37:43;;;;;;;;;41.25;30.00;;;;;7.18;65.47;102384.66;5037803;28;45685;-81
2022/01/24 11:40:18;;;;;;;;;41.25;34.50;;;;;7.22;65.36;102380.25;5036882;28;46502;-82
2022/01/24 11:42:47;;;;;;;;;38.75;30.50;;;;;7.04;65.18;102339.06;5052561;28;48322;-82
2022/01/24 11:45:17;;;;;;;;;37.50;33.00;;;;;7.05;65.33;102335.56;5037431;28;46052;-82
2022/01/24 11:51:15;;;;;;;;;36.50;32.50;;;;;7.28;65.08;102355.75;5037210;28;45482;-83
2022/01/24 11:53:44;;;;;;;;;33.50;25.50;;;;;7.17;64.96;102332.59;5036467;28;47268;-83
2022/01/24 11:56:21;;;;;;;;;44.75;33.00;;;;;7.10;65.12;102311.06;5046802;28;45735;-83
2022/01/24 11:58:47;;;;;;;;;39.50;30.25;;;;;7.50;65.13;102375.09;5041815;28;45599;-83
2022/01/24 12:01:32;;;;;;;;;39.75;32.25;;;;;7.33;64.77;102335.63;5032447;28;47794;-82
2022/01/24 12:07:22;;;;;;;;;42.50;34.75;;;;;7.44;64.70;102342.22;5033884;28;45641;-83
2022/01/24 12:09:49;;;;;;;;;36.50;30.50;;;;;7.23;64.79;102289.88;5036489;28;45870;-82
2022/01/24 12:12:50;;;;;;;;;33.00;28.50;;;;;7.67;64.58;102362.34;5043405;28;45877;-82
2022/01/24 12:15:37;;;;;;;;;48.00;37.00;;;;;7.72;64.55;102357.03;5061317;28;47960;-84
2022/01/24 12:18:08;;;;;;;;;42.25;31.50;;;;;7.75;64.59;102367.34;5046740;28;45447;-84
2022/01/24 12:20:36;;;;;;;;;34.25;30.00;;;;;7.78;64.36;102357.66;5043324;28;45697;-83
2022/01/24 12:23:16;;;;;;;;;33.00;28.50;;;;;7.83;64.49;102363.59;5036121;28;46862;-84
2022/01/24 12:25:57;;;;;;;;;40.50;34.75;;;;;7.86;64.18;102354.81;5034429;28;45620;-83
2022/01/24 12:28:29;;;;;;;;;41.75;35.00;;;;;7.59;64.13;102312.19;5035660;28;45999;-83
2022/01/24 12:31:06;;;;;;;;;35.25;31.75;;;;;7.92;64.26;102352.88;5036920;28;45585;-82
2022/01/24 12:33:36;;;;;;;;;38.50;33.50;;;;;7.97;64.10;102360.56;5036919;28;46768;-82
2022/01/24 12:36:05;;;;;;;;;40.75;33.50;;;;;8.01;64.19;102352.56;5037488;28;46301;-80
2022/01/24 12:38:46;;;;;;;;;38.75;32.25;;;;;7.77;64.10;102311.63;5038166;28;45777;-84
2022/01/24 12:41:34;;;;;;;;;37.75;33.50;;;;;7.64;64.01;102291.19;5038666;28;45611;-83
2022/01/24 12:46:29;;;;;;;;;46.50;36.25;;;;;8.07;63.90;102350.66;5037255;28;46141;-83
2022/01/24 12:48:57;;;;;;;;;35.75;30.25;;;;;7.95;64.23;102313.63;5036994;28;45902;-83
2022/01/24 12:51:25;;;;;;;;;36.50;33.00;;;;;7.92;63.79;102300.69;5036972;28;45803;-82
2022/01/24 12:53:51;;;;;;;;;43.00;34.50;;;;;8.19;63.68;102343.28;5036692;28;45714;-81
2022/01/24 12:56:18;;;;;;;;;37.50;30.00;;;;;8.03;63.73;102316.00;5035767;28;46099;-82
2022/01/24 12:58:49;;;;;;;;;35.00;32.50;;;;;8.27;63.53;102340.41;5037189;28;45513;-83
2022/01/24 13:01:37;;;;;;;;;36.50;32.00;;;;;8.27;63.44;102340.41;5051956;28;45876;-81
2022/01/24 13:04:10;;;;;;;;;37.25;31.25;;;;;8.28;63.73;102339.50;5036845;28;46641;-81
2022/01/24 13:06:43;;;;;;;;;33.25;30.25;;;;;8.30;63.54;102343.81;5036235;28;45661;-77
2022/01/24 13:09:16;;;;;;;;;36.25;32.75;;;;;8.32;63.17;102335.91;5035951;28;45876;-78
2022/01/24 13:11:52;;;;;;;;;33.75;31.75;;;;;8.03;63.25;102295.13;5036159;28;45694;-79
2022/01/24 13:14:26;;;;;;;;;34.00;25.25;;;;;8.11;63.08;102305.28;5035921;28;45669;-77
2022/01/24 13:25:23;;;;;;;;;28.25;25.00;;;;;8.46;62.95;102325.88;5035980;28;45574;-78
2022/01/24 13:27:51;;;;;;;;;28.75;24.00;;;;;8.49;62.84;102333.59;5051431;28;46161;-78
2022/01/24 13:30:19;;;;;;;;;36.50;30.00;;;;;8.29;62.99;102289.00;5036001;28;45901;-76
2022/01/24 13:32:50;;;;;;;;;31.00;27.75;;;;;8.49;62.76;102312.69;5036321;28;45645;-76
2022/01/24 13:35:26;;;;;;;;;38.25;33.75;;;;;8.59;62.81;102319.28;5051197;28;47614;-79
2022/01/24 13:37:56;;;;;;;;;36.75;32.00;;;;;8.39;62.93;102278.22;5036065;28;45972;-79
2022/01/24 13:41:10;;;;;;;;;35.75;31.25;;;;;8.64;62.84;102316.50;5035282;28;45551;-78
2022/01/24 13:44:07;;;;;;;;;28.50;26.25;;;;;8.63;62.74;102301.78;5035632;28;46013;-79
2022/01/24 13:46:41;;;;;;;;;39.50;29.50;;;;;8.74;62.58;102317.91;5035993;28;45584;-78
2022/01/24 13:52:28;;;;;;;;;40.25;33.25;;;;;8.72;62.47;102297.06;5033814;28;45782;-79
2022/01/24 13:54:53;;;;;;;;;31.75;27.50;;;;;8.72;62.53;102302.28;5036128;28;45785;-78
2022/01/24 13:57:20;;;;;;;;;27.25;25.50;;;;;8.75;62.45;102304.78;5035750;28;45601;-77
2022/01/24 13:59:45;;;;;;;;;36.25;29.00;;;;;8.78;62.11;102307.28;5035951;28;46049;-77
2022/01/24 14:02:17;;;;;;;;;43.50;34.50;;;;;8.71;62.01;102289.28;5036374;28;45833;-78
2022/01/24 14:08:15;;;;;;;;;27.50;24.75;;;;;8.89;62.07;102319.97;5037140;28;45545;-77
2022/01/24 14:10:41;;;;;;;;;39.75;28.00;;;;;8.83;61.95;102305.38;5037565;28;46085;-76
2022/01/24 14:13:08;;;;;;;;;30.75;28.50;;;;;8.71;61.82;102284.03;5037178;28;45842;-77
2022/01/24 14:23:55;;;;;;;;;32.50;28.00;;;;;9.01;61.74;102326.50;5039431;28;46029;-78
2022/01/24 14:26:21;;;;;;;;;35.50;26.75;;;;;9.02;61.90;102328.19;5038896;28;45634;-80
2022/01/24 14:28:48;;;;;;;;;28.50;24.75;;;;;9.05;61.75;102328.94;5037097;28;47586;-79
2022/01/24 14:31:15;;;;;;;;;38.25;29.75;;;;;8.87;61.80;102302.63;5037371;28;46309;-79
2022/01/24 14:33:43;;;;;;;;;37.50;27.00;;;;;9.10;61.82;102336.63;5037448;28;45808;-79
2022/01/24 14:39:31;;;;;;;;;28.25;26.25;;;;;8.96;61.76;102297.91;5036273;28;46045;-78
2022/01/24 14:41:58;;;;;;;;;26.00;22.00;;;;;8.83;61.48;102270.53;5035819;28;46069;-78
2022/01/24 14:47:08;;;;;;;;;26.75;21.00;;;;;9.21;61.46;102324.00;5035467;28;45652;-78
2022/01/24 14:49:38;;;;;;;;;28.25;21.75;;;;;9.16;61.26;102305.88;5035222;28;46598;-78
2022/01/24 14:52:09;;;;;;;;;30.00;25.00;;;;;9.24;61.25;102322.09;5035256;28;46186;-79